Time;durP1;ratioP1;P1;durP2;ratioP2;P2;SDS_P1;SDS_P2;PMS_P1;PMS_P2;Temp;Humidity;BMP_temperature;BMP_pressure;BME280_temperature;BME280_humidity;BME280_pressure;Samples;Min_cycle;Max_cycle;Signal;HPM_P1;HPM_P2
2022/07/03 00:02:09;;;;;;;3.90;1.90;;;;;;;20.82;54.89;99225.24;104942;1274;75484;-25
2022/07/03 00:04:37;;;;;;;3.50;2.00;;;;;;;20.81;54.71;99222.30;104741;1274;61162;-25
2022/07/03 00:07:04;;;;;;;4.40;2.30;;;;;;;20.79;54.81;99222.78;105073;1274;62855;-25
2022/07/03 00:09:31;;;;;;;3.00;1.90;;;;;;;20.78;54.47;99225.48;105035;1274;76579;-24
2022/07/03 00:12:01;;;;;;;3.90;2.10;;;;;;;20.75;54.41;99221.64;105038;1274;77174;-24
2022/07/03 00:14:28;;;;;;;4.90;2.70;;;;;;;20.73;54.66;99227.77;105035;1274;75284;-25
2022/07/03 00:16:56;;;;;;;8.30;3.50;;;;;;;20.69;55.33;99227.81;104816;1274;62785;-25
2022/07/03 00:19:23;;;;;;;7.10;3.30;;;;;;;20.62;56.27;99224.71;104602;1274;61864;-25
2022/07/03 00:21:57;;;;;;;6.80;3.60;;;;;;;20.57;56.62;99221.25;104801;1274;76399;-25
2022/07/03 00:24:28;;;;;;;6.10;3.20;;;;;;;20.52;56.58;99211.23;104801;1274;77054;-25
2022/07/03 00:26:55;;;;;;;10.60;5.20;;;;;;;20.47;56.80;99213.75;104701;1274;74686;-24
2022/07/03 00:29:23;;;;;;;9.30;5.00;;;;;;;20.42;57.05;99210.20;104606;1274;63133;-25
2022/07/03 00:31:50;;;;;;;8.20;4.60;;;;;;;20.35;57.15;99209.42;104778;1272;61127;-25
2022/07/03 00:34:18;;;;;;;7.30;4.10;;;;;;;20.28;57.59;99203.22;104753;1274;76552;-25
2022/07/03 00:36:47;;;;;;;5.80;2.90;;;;;;;20.21;57.45;99203.98;104834;1274;77006;-25
2022/07/03 00:39:14;;;;;;;4.50;2.80;;;;;;;20.15;57.37;99201.19;104761;1271;75212;-25
2022/07/03 00:41:44;;;;;;;5.40;3.20;;;;;;;20.10;57.17;99195.59;104886;1271;61121;-25
2022/07/03 00:44:11;;;;;;;6.10;2.70;;;;;;;20.05;56.54;99189.64;104940;1272;61169;-25
2022/07/03 00:46:41;;;;;;;7.70;3.30;;;;;;;20.03;57.29;99193.80;104866;1271;75469;-25
2022/07/03 00:49:09;;;;;;;4.80;3.20;;;;;;;20.01;58.07;99190.27;104928;1271;77005;-25
2022/07/03 00:51:40;;;;;;;5.90;2.90;;;;;;;19.92;59.67;99195.64;104717;1271;74593;-25
2022/07/03 00:54:09;;;;;;;4.20;3.10;;;;;;;19.74;60.79;99192.96;104660;1271;61150;-25
2022/07/03 00:56:38;;;;;;;3.90;2.40;;;;;;;19.57;60.87;99198.64;105063;1271;61124;-25
2022/07/03 00:59:05;;;;;;;6.70;3.30;;;;;;;19.48;61.54;99202.16;104773;1271;75756;-25
2022/07/03 01:01:35;;;;;;;7.50;2.80;;;;;;;19.41;61.87;99201.90;104798;1271;76939;-25
2022/07/03 01:04:21;;;;;;;9.00;2.50;;;;;;;19.32;62.97;99201.39;104678;1271;74191;-25
2022/07/03 01:06:57;;;;;;;6.10;2.70;;;;;;;19.19;63.70;99201.42;104760;1271;61868;-25
2022/07/03 01:09:54;;;;;;;4.60;1.70;;;;;;;19.12;64.15;99203.10;105092;1271;62635;-25
2022/07/03 01:12:59;;;;;;;7.30;1.90;;;;;;;19.79;63.10;99197.51;104667;1271;76585;-25
2022/07/03 01:15:35;;;;;;;4.00;1.90;;;;;;;20.37;61.25;99192.77;104869;1271;76967;-25
2022/07/03 01:18:18;;;;;;;3.90;2.20;;;;;;;20.39;61.29;99196.83;104914;1271;74264;-25
2022/07/03 01:20:51;;;;;;;3.30;2.20;;;;;;;20.25;61.81;99198.14;104927;1271;62870;-25
2022/07/03 01:23:35;;;;;;;4.00;2.10;;;;;;;20.10;62.05;99197.61;104853;1271;62775;-25
2022/07/03 01:26:04;;;;;;;4.20;2.20;;;;;;;19.95;62.48;99189.98;104988;1271;76341;-25
2022/07/03 01:28:32;;;;;;;5.50;2.40;;;;;;;19.79;60.28;99188.00;104871;1271;76834;-25
2022/07/03 01:31:01;;;;;;;4.00;2.20;;;;;;;19.74;62.89;99190.25;104861;1271;75437;-25
2022/07/03 01:33:31;;;;;;;3.80;2.40;;;;;;;19.63;62.79;99189.84;104844;1271;62044;-25
2022/07/03 01:36:01;;;;;;;3.80;2.00;;;;;;;19.54;63.44;99187.05;104793;1271;61687;-25
2022/07/03 01:38:29;;;;;;;3.10;2.10;;;;;;;19.46;63.91;99191.81;104982;1271;75590;-25
2022/07/03 01:40:58;;;;;;;4.20;2.20;;;;;;;19.39;64.55;99195.26;104736;1271;77122;-25
2022/07/03 01:43:30;;;;;;;3.60;2.10;;;;;;;19.36;65.47;99195.64;104662;1271;74211;-25
2022/07/03 01:45:59;;;;;;;5.40;2.00;;;;;;;19.92;64.94;99190.91;104777;1271;62204;-25
2022/07/03 01:48:28;;;;;;;3.10;1.60;;;;;;;20.53;63.63;99195.41;105068;1271;61576;-26
2022/07/03 01:50:57;;;;;;;3.20;2.10;;;;;;;20.64;62.48;99195.93;104840;1271;75818;-25
2022/07/03 01:53:27;;;;;;;3.10;2.10;;;;;;;20.48;62.69;99199.42;104734;1271;77081;-25
2022/07/03 01:55:57;;;;;;;4.20;2.00;;;;;;;20.24;62.78;99202.27;105064;1271;75479;-25
2022/07/03 01:58:24;;;;;;;2.30;1.90;;;;;;;20.00;62.58;99202.09;104932;1271;63023;-25
2022/07/03 02:01:15;;;;;;;3.60;2.20;;;;;;;19.84;63.17;99203.11;104942;1271;62805;-25
2022/07/03 02:03:47;;;;;;;3.00;2.00;;;;;;;19.69;63.14;99199.68;105022;1271;76287;-25
2022/07/03 02:06:23;;;;;;;8.90;2.50;;;;;;;19.60;63.44;99208.16;104773;1271;74942;-25
2022/07/03 02:08:57;;;;;;;3.30;2.90;;;;;;;19.46;63.81;99208.52;104858;1271;74355;-25
2022/07/03 02:11:45;;;;;;;4.00;2.70;;;;;;;19.35;63.98;99210.14;104968;1271;62092;-25
2022/07/03 02:14:17;;;;;;;3.10;2.40;;;;;;;19.28;63.83;99208.18;105077;1271;61209;-25
2022/07/03 02:16:54;;;;;;;5.90;2.60;;;;;;;19.15;63.96;99206.11;105082;1271;76639;-25
2022/07/03 02:19:25;;;;;;;8.40;2.50;;;;;;;19.14;64.84;99207.27;104826;1271;76757;-25
2022/07/03 02:21:54;;;;;;;2.90;1.60;;;;;;;19.18;65.81;99212.09;104949;1270;75101;-25
2022/07/03 02:24:26;;;;;;;2.30;1.90;;;;;;;19.79;65.56;99208.94;104793;1271;61154;-25
2022/07/03 02:26:58;;;;;;;4.70;2.30;;;;;;;20.39;64.44;99215.59;105138;1271;61804;-25
2022/07/03 02:29:36;;;;;;;3.50;2.30;;;;;;;20.50;62.87;99213.15;104934;1272;76449;-25
2022/07/03 02:32:06;;;;;;;3.10;2.00;;;;;;;20.30;62.95;99213.83;104795;1271;75164;-25
2022/07/03 02:34:34;;;;;;;7.30;2.10;;;;;;;20.07;63.98;99208.98;104712;1271;75397;-25
2022/07/03 02:37:17;;;;;;;5.10;2.90;;;;;;;19.76;64.75;99202.45;104883;1271;63180;-26
2022/07/03 02:39:52;;;;;;;24.80;7.90;;;;;;;19.38;66.76;99202.79;104812;1271;63043;-25
2022/07/03 02:42:35;;;;;;;14.20;6.30;;;;;;;19.03;68.66;99204.88;105084;1271;75738;-25
2022/07/03 02:45:03;;;;;;;6.50;3.10;;;;;;;18.76;68.85;99198.16;104971;1271;76892;-25
2022/07/03 02:48:17;;;;;;;9.10;3.40;;;;;;;19.16;68.45;99192.77;104779;1271;75426;-24
2022/07/03 02:50:46;;;;;;;7.60;3.70;;;;;;;19.48;68.07;99190.91;104693;1271;62719;-25
2022/07/03 02:53:30;;;;;;;12.20;2.80;;;;;;;19.34;68.47;99188.42;104817;1271;61117;-24
2022/07/03 02:56:21;;;;;;;5.00;2.50;;;;;;;19.08;67.74;99185.04;104939;1271;76027;-24
2022/07/03 02:58:51;;;;;;;4.50;2.30;;;;;;;18.78;69.18;99191.10;104989;1270;75748;-24
2022/07/03 03:01:34;;;;;;;4.00;2.60;;;;;;;18.52;69.77;99189.15;104969;1271;75337;-24
2022/07/03 03:04:26;;;;;;;3.50;2.10;;;;;;;18.34;70.53;99196.14;105103;1271;64421;-23
2022/07/03 03:07:07;;;;;;;3.80;2.10;;;;;;;18.85;71.08;99195.61;105101;1271;61800;-23
2022/07/03 03:09:41;;;;;;;2.80;1.80;;;;;;;19.15;70.13;99193.77;105132;1269;75297;-23
2022/07/03 03:12:09;;;;;;;6.10;1.90;;;;;;;19.08;70.03;99194.77;104803;1271;76921;-23
2022/07/03 03:14:41;;;;;;;3.40;2.10;;;;;;;18.87;69.84;99189.23;104889;1271;75277;-23
2022/07/03 03:17:19;;;;;;;3.50;2.40;;;;;;;18.60;71.06;99186.76;104721;1271;61881;-23
2022/07/03 03:19:55;;;;;;;5.70;1.90;;;;;;;18.37;72.01;99190.38;104998;1271;63404;-23
2022/07/03 03:22:40;;;;;;;6.10;1.70;;;;;;;18.25;72.88;99191.59;104699;1274;76515;-23
2022/07/03 03:25:11;;;;;;;4.00;1.80;;;;;;;18.92;72.10;99188.88;105071;1271;75334;-23
2022/07/03 03:27:38;;;;;;;3.40;1.50;;;;;;;19.45;70.18;99190.90;105144;1271;75463;-23
2022/07/03 03:30:07;;;;;;;4.80;1.90;;;;;;;19.48;69.72;99185.71;105097;1271;62179;-23
2022/07/03 03:32:34;;;;;;;6.70;1.90;;;;;;;19.33;70.59;99183.45;104653;1271;62082;-23
2022/07/03 03:35:02;;;;;;;5.10;2.60;;;;;;;19.16;71.15;99176.98;105107;1271;75688;-24
2022/07/03 03:37:30;;;;;;;4.20;2.30;;;;;;;19.01;71.07;99176.19;104907;1274;77539;-23
2022/07/03 03:39:58;;;;;;;5.10;2.20;;;;;;;18.86;71.34;99176.77;104732;1271;74755;-23
2022/07/03 03:42:25;;;;;;;5.00;2.10;;;;;;;18.77;72.00;99176.60;104933;1271;63727;-23
2022/07/03 03:44:52;;;;;;;3.40;1.70;;;;;;;19.30;71.71;99173.36;105096;1271;63082;-22
2022/07/03 03:47:24;;;;;;;4.20;1.70;;;;;;;19.94;70.01;99175.25;104856;1271;75437;-22
2022/07/03 03:49:51;;;;;;;2.80;1.80;;;;;;;20.02;68.77;99175.12;104662;1271;76972;-23
2022/07/03 03:52:18;;;;;;;3.20;1.90;;;;;;;19.86;67.81;99173.10;104825;1271;74369;-23
2022/07/03 03:54:46;;;;;;;3.70;1.80;;;;;;;19.77;68.09;99174.27;104848;1271;63053;-23
2022/07/03 03:57:16;;;;;;;5.70;2.00;;;;;;;19.70;67.62;99177.05;104778;1271;63016;-23
2022/07/03 03:59:45;;;;;;;6.50;2.00;;;;;;;19.56;68.15;99171.88;105130;1271;75685;-24
2022/07/03 04:02:13;;;;;;;6.10;1.80;;;;;;;19.45;68.73;99176.28;105094;1271;75278;-23
2022/07/03 04:04:40;;;;;;;4.90;1.80;;;;;;;19.84;66.87;99178.23;105152;1271;74266;-23
2022/07/03 04:07:08;;;;;;;3.60;1.80;;;;;;;20.13;66.64;99182.22;105066;1274;62597;-23
2022/07/03 04:09:35;;;;;;;5.10;1.90;;;;;;;20.09;67.16;99179.19;105102;1271;61756;-23
2022/07/03 04:12:03;;;;;;;4.10;2.40;;;;;;;19.94;67.55;99177.36;105116;1271;76512;-23
2022/07/03 04:14:31;;;;;;;2.90;1.80;;;;;;;19.77;67.53;99177.30;105139;1271;76818;-23
2022/07/03 04:16:58;;;;;;;3.20;1.90;;;;;;;19.65;67.96;99177.67;105103;1271;75445;-23
2022/07/03 04:19:27;;;;;;;5.50;2.60;;;;;;;19.53;68.75;99174.24;105039;1272;62103;-23
2022/07/03 04:21:54;;;;;;;4.70;1.90;;;;;;;19.42;68.80;99177.46;105141;1271;62965;-23
2022/07/03 04:24:22;;;;;;;3.30;1.80;;;;;;;19.36;69.24;99175.23;105103;1271;74788;-23
2022/07/03 04:26:49;;;;;;;2.00;1.40;;;;;;;19.88;69.30;99167.18;104934;1271;76763;-24
2022/07/03 04:29:17;;;;;;;3.20;1.70;;;;;;;20.47;67.86;99167.77;105089;1271;75463;-24
2022/07/03 04:31:47;;;;;;;4.70;2.00;;;;;;;20.57;67.84;99164.56;105063;1271;61624;-24
2022/07/03 04:34:15;;;;;;;2.80;1.70;;;;;;;20.48;66.87;99162.59;105057;1270;61143;-24
2022/07/03 04:36:42;;;;;;;3.60;1.70;;;;;;;20.45;66.86;99165.77;104765;1271;76485;-24
2022/07/03 04:39:09;;;;;;;8.00;2.00;;;;;;;20.50;67.23;99169.20;105067;1271;77000;-23
2022/07/03 04:41:37;;;;;;;7.50;2.30;;;;;;;20.66;67.00;99163.96;104863;1271;75739;-24
2022/07/03 04:44:04;;;;;;;2.60;1.80;;;;;;;20.83;66.73;99161.67;104891;1271;61947;-24
2022/07/03 04:46:31;;;;;;;2.90;1.40;;;;;;;21.10;67.29;99155.18;104790;1271;62304;-23
2022/07/03 04:48:59;;;;;;;8.20;1.50;;;;;;;21.95;65.29;99151.81;104860;1271;75534;-23
2022/07/03 04:51:28;;;;;;;3.70;1.60;;;;;;;22.86;62.64;99148.59;104664;1271;285518;-24
2022/07/03 04:53:56;;;;;;;5.60;2.00;;;;;;;23.33;60.86;99147.39;104981;1272;74029;-24
2022/07/03 04:56:23;;;;;;;2.00;1.80;;;;;;;23.52;59.70;99137.99;105076;1271;62474;-23
2022/07/03 04:58:51;;;;;;;4.50;2.10;;;;;;;23.57;58.99;99131.04;105019;1271;61975;-24
2022/07/03 05:01:19;;;;;;;2.90;1.80;;;;;;;23.64;59.13;99138.17;104884;1271;76666;-23
2022/07/03 05:03:46;;;;;;;2.50;2.20;;;;;;;23.66;56.77;99145.41;104844;1271;77037;-24
2022/07/03 05:06:13;;;;;;;6.20;2.00;;;;;;;23.17;54.58;99153.96;104699;1274;74413;-24
2022/07/03 05:08:46;;;;;;;3.70;1.70;;;;;;;22.68;57.65;99159.48;104690;1271;62282;-24
2022/07/03 05:11:16;;;;;;;2.50;2.00;;;;;;;22.49;59.12;99163.32;105016;1271;61587;-24
2022/07/03 05:13:43;;;;;;;4.60;2.20;;;;;;;22.34;59.25;99161.24;104791;1271;75471;-23
2022/07/03 05:16:11;;;;;;;2.80;2.10;;;;;;;22.07;59.15;99162.73;104901;1271;77164;-23
2022/07/03 05:18:38;;;;;;;2.50;1.90;;;;;;;21.59;60.18;99160.27;104938;1272;75035;-23
2022/07/03 05:21:06;;;;;;;2.00;1.80;;;;;;;21.47;60.34;99158.92;104873;1271;62437;-23
2022/07/03 05:23:33;;;;;;;5.90;2.10;;;;;;;21.19;60.36;99155.91;105135;1271;61945;-23
2022/07/03 05:26:00;;;;;;;4.00;2.20;;;;;;;21.07;61.43;99154.14;104835;1271;75427;-23
2022/07/03 05:28:28;;;;;;;4.70;2.30;;;;;;;21.01;61.73;99156.66;104901;1271;76969;-23
2022/07/03 05:30:55;;;;;;;4.70;1.90;;;;;;;20.84;61.64;99159.60;104815;1271;75379;-23
2022/07/03 05:33:23;;;;;;;4.50;2.40;;;;;;;20.78;62.98;99164.59;104833;1270;61990;-23
2022/07/03 05:35:50;;;;;;;2.30;1.80;;;;;;;20.84;64.02;99160.09;105149;1271;63288;-24
2022/07/03 05:39:31;;;;;;;5.40;2.20;;;;;;;20.98;63.01;99160.26;105081;1271;75029;-24
2022/07/03 05:41:05;;;;;;;7.00;1.90;;;;;;;21.11;63.15;99165.34;105103;1271;77283;-24
2022/07/03 05:43:32;;;;;;;5.80;2.00;;;;;;;21.15;62.72;99160.61;104871;1271;74378;-24
2022/07/03 05:46:00;;;;;;;3.90;2.10;;;;;;;21.14;61.99;99163.70;104948;1271;61884;-26
2022/07/03 05:48:28;;;;;;;4.10;2.10;;;;;;;21.20;62.43;99166.51;104885;1271;63270;-25
2022/07/03 05:50:55;;;;;;;5.70;1.90;;;;;;;21.30;62.74;99169.88;104846;1271;76687;-25
2022/07/03 05:53:23;;;;;;;3.90;2.20;;;;;;;21.32;61.90;99168.52;105035;1272;76827;-25
2022/07/03 05:55:50;;;;;;;4.00;2.20;;;;;;;21.33;61.24;99172.55;104765;1271;74582;-25
2022/07/03 05:58:17;;;;;;;3.80;2.10;;;;;;;21.35;61.81;99169.89;104943;1271;63203;-25
2022/07/03 06:00:45;;;;;;;5.70;2.20;;;;;;;21.40;62.61;99169.71;105033;1271;63304;-25
2022/07/03 06:03:13;;;;;;;7.30;2.10;;;;;;;21.51;62.07;99168.05;104948;1271;76899;-25
2022/07/03 06:05:40;;;;;;;3.30;2.30;;;;;;;21.53;62.51;99162.75;104934;1271;75924;-25
2022/07/03 06:08:08;;;;;;;4.90;1.60;;;;;;;21.73;63.75;99163.91;105005;1272;75508;-25
2022/07/03 06:10:35;;;;;;;2.50;1.80;;;;;;;22.62;61.85;99156.66;105086;1271;61134;-23
2022/07/03 06:13:02;;;;;;;3.30;1.80;;;;;;;23.60;60.50;99153.27;105129;1271;63232;-24
2022/07/03 06:15:30;;;;;;;5.90;1.90;;;;;;;24.10;58.11;99152.64;104890;1271;76520;-23
2022/07/03 06:17:58;;;;;;;4.40;2.50;;;;;;;24.26;56.38;99147.35;104735;1271;76911;-23
2022/07/03 06:20:25;;;;;;;6.10;3.00;;;;;;;24.30;56.31;99152.79;105003;1271;75192;-23
2022/07/03 06:22:52;;;;;;;6.70;2.60;;;;;;;24.22;55.94;99156.08;105058;1271;61161;-23
2022/07/03 06:25:20;;;;;;;4.10;2.50;;;;;;;24.14;56.06;99158.04;105107;1272;62804;-23
2022/07/03 06:27:47;;;;;;;7.50;3.50;;;;;;;24.17;57.07;99162.93;105070;1271;75853;-23
2022/07/03 06:30:14;;;;;;;6.50;2.40;;;;;;;24.43;56.61;99163.03;104827;1271;76992;-23
2022/07/03 06:32:42;;;;;;;8.00;2.70;;;;;;;24.85;56.96;99164.20;105103;1271;75451;-23
2022/07/03 06:35:09;;;;;;;4.80;2.40;;;;;;;25.29;55.73;99163.08;105159;1271;63214;-23
2022/07/03 06:37:37;;;;;;;5.70;2.60;;;;;;;25.55;55.86;99168.52;105148;1271;61873;-23
2022/07/03 06:40:06;;;;;;;3.20;2.90;;;;;;;25.36;53.18;99167.41;104951;1272;74654;-23
2022/07/03 06:42:35;;;;;;;5.90;3.00;;;;;;;25.38;53.44;99166.36;104858;1271;77122;-23
2022/07/03 06:45:03;;;;;;;5.80;3.20;;;;;;;25.57;53.10;99172.48;105085;1271;74495;-23
2022/07/03 06:47:39;;;;;;;8.00;3.10;;;;;;;25.51;53.12;99177.31;105096;1272;62191;-23
2022/07/03 06:50:07;;;;;;;3.70;2.50;;;;;;;25.40;53.04;99175.52;104754;1272;61965;-23
2022/07/03 06:52:34;;;;;;;6.00;2.60;;;;;;;25.34;52.89;99174.92;105146;1272;76702;-23
2022/07/03 06:55:02;;;;;;;3.70;2.60;;;;;;;25.45;54.28;99177.17;105034;1271;76992;-23
2022/07/03 06:57:29;;;;;;;8.00;2.90;;;;;;;25.47;53.43;99178.25;104985;1271;74302;-23
2022/07/03 06:59:57;;;;;;;7.10;3.10;;;;;;;25.35;52.83;99176.23;105101;1271;62091;-23
2022/07/03 07:02:24;;;;;;;6.80;3.60;;;;;;;24.31;54.00;99177.50;105133;1271;63085;-23
2022/07/03 07:04:52;;;;;;;5.30;2.90;;;;;;;24.28;54.75;99176.40;105029;1271;76419;-23
2022/07/03 07:07:20;;;;;;;3.60;2.40;;;;;;;24.48;54.57;99181.89;105112;1271;75944;-23
2022/07/03 07:09:48;;;;;;;5.50;3.30;;;;;;;24.62;54.96;99175.19;105025;1271;75721;-23
2022/07/03 07:12:16;;;;;;;5.10;3.20;;;;;;;23.90;55.03;99172.08;104691;1274;61765;-23
2022/07/03 07:14:43;;;;;;;6.10;3.10;;;;;;;23.98;54.91;99170.16;104967;1271;62448;-23
2022/07/03 07:17:10;;;;;;;5.60;2.80;;;;;;;24.17;54.10;99174.80;104920;1271;76647;-23
2022/07/03 07:19:38;;;;;;;7.60;3.10;;;;;;;24.55;54.33;99171.58;104877;1271;77090;-24
2022/07/03 07:22:05;;;;;;;5.20;3.50;;;;;;;24.79;54.11;99172.63;104857;1271;75392;-23
2022/07/03 07:24:33;;;;;;;4.00;3.30;;;;;;;24.36;53.97;99169.58;104803;1271;62814;-23
2022/07/03 07:27:00;;;;;;;8.20;3.40;;;;;;;24.21;55.73;99171.39;105111;1271;61210;-22
2022/07/03 07:29:31;;;;;;;5.80;3.00;;;;;;;24.15;54.70;99173.11;104913;1271;76276;-22
2022/07/03 07:31:58;;;;;;;6.90;3.30;;;;;;;24.02;55.89;99172.75;104920;1271;77254;-23
2022/07/03 07:34:26;;;;;;;5.40;4.00;;;;;;;23.32;57.01;99173.16;104908;1270;75725;-23
2022/07/03 07:36:53;;;;;;;5.70;3.30;;;;;;;23.06;58.40;99176.64;104975;1272;62785;-22
2022/07/03 07:39:21;;;;;;;4.70;3.20;;;;;;;23.26;59.23;99176.36;104942;1271;61086;-24
2022/07/03 07:41:48;;;;;;;4.10;2.80;;;;;;;23.29;59.61;99177.19;104990;1271;76849;-25
2022/07/03 07:44:16;;;;;;;8.30;3.40;;;;;;;22.64;60.03;99180.20;104917;1271;75001;-25
2022/07/03 07:46:46;;;;;;;7.30;3.20;;;;;;;22.59;60.40;99185.05;104759;1271;75375;-25
2022/07/03 07:49:13;;;;;;;5.40;3.70;;;;;;;22.13;62.29;99184.55;104988;1271;62287;-22
2022/07/03 07:51:40;;;;;;;5.90;3.00;;;;;;;22.06;62.04;99189.45;105101;1271;62747;-22
2022/07/03 07:54:08;;;;;;;4.10;3.10;;;;;;;22.31;61.89;99187.06;104927;1271;76291;-22
2022/07/03 07:56:35;;;;;;;4.50;3.10;;;;;;;22.30;61.69;99185.05;105007;1272;76002;-23
2022/07/03 07:59:03;;;;;;;6.70;3.30;;;;;;;22.10;62.47;99181.76;105104;1271;73303;-23
2022/07/03 08:07:05;;;;;;;9.50;4.50;;;;;;;21.32;64.91;99186.23;105003;1271;75504;-22
2022/07/03 08:09:32;;;;;;;5.40;3.30;;;;;;;21.24;65.01;99184.55;105081;1271;76953;-22
2022/07/03 08:12:00;;;;;;;5.80;3.30;;;;;;;21.35;64.95;99190.21;105073;1271;74349;-23
2022/07/03 08:14:27;;;;;;;4.70;2.60;;;;;;;21.44;65.80;99188.11;105105;1272;64702;-22
2022/07/03 08:16:55;;;;;;;6.70;3.30;;;;;;;22.13;63.53;99189.96;105081;1271;61100;-22
2022/07/03 08:19:22;;;;;;;8.00;3.60;;;;;;;22.45;63.27;99192.55;104943;1271;76735;-23
2022/07/03 08:21:50;;;;;;;7.40;4.00;;;;;;;22.31;62.61;99193.06;104826;1271;76780;-22
2022/07/03 08:24:19;;;;;;;7.00;4.20;;;;;;;22.30;63.22;99195.51;104973;1271;75591;-26
2022/07/03 08:26:50;;;;;;;5.10;3.50;;;;;;;22.02;64.27;99193.52;105086;1271;62832;-22
2022/07/03 08:29:18;;;;;;;11.30;4.30;;;;;;;21.82;65.55;99197.48;104956;1271;61845;-25
2022/07/03 08:31:45;;;;;;;7.40;3.90;;;;;;;22.13;64.84;99192.02;104818;1271;76554;-24
2022/07/03 08:34:13;;;;;;;8.10;3.60;;;;;;;22.25;64.31;99193.90;104719;1271;77002;-23
2022/07/03 08:36:41;;;;;;;14.20;4.10;;;;;;;22.51;63.22;99194.63;104852;1272;74465;-23
2022/07/03 08:39:09;;;;;;;6.40;4.10;;;;;;;22.23;63.24;99194.59;105046;1271;61786;-24
2022/07/03 08:41:38;;;;;;;6.90;4.10;;;;;;;22.09;63.62;99197.91;105071;1274;61911;-23
2022/07/03 08:44:08;;;;;;;6.10;4.30;;;;;;;22.12;63.99;99203.27;105013;1271;76778;-23
2022/07/03 08:46:36;;;;;;;7.80;3.90;;;;;;;22.11;63.89;99202.89;104810;1271;76741;-23
2022/07/03 08:49:03;;;;;;;4.80;3.90;;;;;;;22.25;63.84;99206.30;105033;1271;74421;-23
2022/07/03 08:51:31;;;;;;;4.80;3.30;;;;;;;22.46;62.42;99205.96;104913;1272;62884;-24
2022/07/03 08:54:01;;;;;;;9.30;4.80;;;;;;;22.53;63.06;99204.96;105119;1271;62993;-24
2022/07/03 08:56:28;;;;;;;6.00;3.60;;;;;;;22.42;62.97;99207.98;105163;1271;76571;-23
2022/07/03 08:58:57;;;;;;;8.90;3.20;;;;;;;22.01;63.86;99199.91;105120;1271;77046;-24
2022/07/03 09:01:24;;;;;;;5.70;3.10;;;;;;;21.68;65.35;99200.14;104771;1271;75143;-24
2022/07/03 09:03:51;;;;;;;3.50;3.20;;;;;;;22.23;64.13;99191.77;104928;1271;63043;-24
2022/07/03 09:06:19;;;;;;;4.80;3.50;;;;;;;22.51;63.60;99191.23;104969;1272;61962;-24
2022/07/03 09:08:46;;;;;;;12.60;3.10;;;;;;;22.31;63.71;99194.58;105148;1271;76519;-24
2022/07/03 09:11:14;;;;;;;6.50;2.80;;;;;;;22.69;63.02;99190.87;105051;1272;75139;-24
2022/07/03 09:13:41;;;;;;;6.30;3.00;;;;;;;22.99;61.52;99187.05;104856;1271;74429;-24
2022/07/03 09:16:16;;;;;;;3.80;3.10;;;;;;;23.35;60.34;99181.17;104896;1271;61992;-24
2022/07/03 09:18:44;;;;;;;5.00;3.10;;;;;;;24.02;60.43;99179.33;104914;1272;62156;-24
2022/07/03 09:21:12;;;;;;;6.10;3.30;;;;;;;24.60;56.99;99178.47;104976;1271;76639;-24
2022/07/03 09:23:41;;;;;;;7.50;3.80;;;;;;;25.13;57.99;99173.52;104818;1272;77047;-24
2022/07/03 09:26:15;;;;;;;9.10;3.40;;;;;;;25.83;54.86;99172.44;104902;1271;74085;-24
2022/07/03 09:28:50;;;;;;;5.60;4.40;;;;;;;26.52;55.32;99169.64;105037;1271;63177;-24
2022/07/03 09:31:20;;;;;;;6.40;4.50;;;;;;;27.14;52.92;99167.08;105128;1272;63717;-24
2022/07/03 09:33:55;;;;;;;6.50;4.40;;;;;;;27.47;50.69;99162.80;105163;1274;76371;-24
2022/07/03 09:36:42;;;;;;;6.30;4.50;;;;;;;27.64;49.56;99160.55;104759;1274;76975;-24
2022/07/03 09:39:15;;;;;;;9.00;4.50;;;;;;;27.82;49.95;99158.15;105161;1271;75875;-24
2022/07/03 09:42:19;;;;;;;6.20;4.10;;;;;;;28.19;48.36;99162.23;105069;1272;62120;-24
2022/07/03 09:44:47;;;;;;;6.30;4.50;;;;;;;28.47;49.05;99165.88;104962;1271;63069;-24
2022/07/03 09:47:24;;;;;;;9.10;4.90;;;;;;;28.70;48.90;99170.10;105115;1271;76468;-24
2022/07/03 09:50:05;;;;;;;5.80;4.40;;;;;;;29.01;48.47;99165.69;105124;1271;76121;-24
2022/07/03 09:52:43;;;;;;;6.20;4.40;;;;;;;29.41;47.02;99165.06;104876;1271;75428;-24
2022/07/03 09:55:10;;;;;;;5.30;4.10;;;;;;;29.88;45.66;99165.41;104618;1275;61214;-24
2022/07/03 09:57:39;;;;;;;8.40;4.90;;;;;;;30.28;44.47;99170.98;105096;1271;62772;-24
2022/07/03 10:00:16;;;;;;;8.50;5.60;;;;;;;28.78;45.86;99174.07;105034;1274;75666;-24
2022/07/03 10:03:00;;;;;;;7.50;6.40;;;;;;;28.88;46.90;99172.14;105069;1274;77023;-24
2022/07/03 10:05:41;;;;;;;7.20;6.50;;;;;;;28.60;47.52;99169.13;104778;1271;74296;-24
2022/07/03 10:08:12;;;;;;;10.70;6.70;;;;;;;28.03;48.84;99168.86;105087;1271;62243;-24
2022/07/03 10:10:44;;;;;;;7.50;6.30;;;;;;;27.51;50.52;99174.02;104784;1271;62418;-24
2022/07/03 10:13:12;;;;;;;7.40;5.70;;;;;;;27.40;51.34;99173.88;104733;1271;76515;-24
2022/07/03 10:15:40;;;;;;;7.60;6.10;;;;;;;27.40;51.12;99173.54;104903;1271;76998;-24
2022/07/03 10:18:09;;;;;;;8.40;5.90;;;;;;;27.24;50.67;99174.94;105060;1272;74261;-24
2022/07/03 10:20:36;;;;;;;7.70;5.90;;;;;;;26.92;50.74;99179.92;105059;1271;61151;-24
2022/07/03 10:23:04;;;;;;;8.90;6.60;;;;;;;27.11;51.80;99179.13;104941;1270;61781;-25
2022/07/03 10:25:31;;;;;;;9.50;7.50;;;;;;;26.82;51.62;99179.14;105116;1274;76592;-24
2022/07/03 10:27:59;;;;;;;8.00;6.70;;;;;;;26.85;51.85;99179.89;105068;1271;76871;-24
2022/07/03 10:30:26;;;;;;;9.00;6.50;;;;;;;27.05;51.94;99178.08;104732;1271;75395;-24
2022/07/03 10:32:55;;;;;;;7.20;5.80;;;;;;;27.14;51.00;99177.39;104736;1271;62136;-24
2022/07/03 10:35:27;;;;;;;10.60;5.90;;;;;;;26.98;51.42;99180.11;104915;1271;63104;-24
2022/07/03 10:38:00;;;;;;;9.80;7.30;;;;;;;26.62;52.85;99181.17;105022;1271;76617;-24
2022/07/03 10:46:24;;;;;;;8.70;7.00;;;;;;;26.21;54.11;99176.17;104748;1271;61095;-24
2022/07/03 10:49:07;;;;;;;8.20;6.60;;;;;;;26.42;53.67;99178.09;104717;1271;63046;-24
2022/07/03 10:51:44;;;;;;;8.70;7.20;;;;;;;26.42;53.62;99180.29;105126;1271;76709;-24
2022/07/03 10:54:12;;;;;;;7.40;6.60;;;;;;;26.65;53.01;99178.40;105056;1274;76951;-24
2022/07/03 10:56:58;;;;;;;10.90;7.50;;;;;;;27.20;52.48;99173.41;104742;1271;75200;-24
2022/07/03 10:59:31;;;;;;;10.30;7.20;;;;;;;27.19;51.45;99168.95;104736;1272;61700;-24
2022/07/03 11:02:36;;;;;;;6.90;6.20;;;;;;;27.36;51.30;99168.90;104807;1272;61248;-24
2022/07/03 11:05:09;;;;;;;8.90;6.10;;;;;;;28.22;48.93;99160.60;105081;1271;75706;-24
2022/07/03 11:07:48;;;;;;;7.80;6.00;;;;;;;28.63;48.60;99161.39;104905;1274;76466;-24
2022/07/03 11:10:16;;;;;;;8.20;5.60;;;;;;;28.78;48.35;99155.71;104966;1271;75343;-24
2022/07/03 11:12:56;;;;;;;7.40;6.00;;;;;;;28.84;47.49;99152.02;105175;1271;61126;-24
2022/07/03 11:15:44;;;;;;;8.50;6.80;;;;;;;28.21;49.25;99149.33;104962;1271;61888;-24
2022/07/03 11:18:15;;;;;;;8.80;5.90;;;;;;;28.02;50.15;99150.80;104777;1271;76954;-24
2022/07/03 11:20:42;;;;;;;6.50;5.80;;;;;;;28.08;49.47;99152.73;104886;1272;76935;-24
2022/07/03 11:23:10;;;;;;;10.30;6.00;;;;;;;28.07;49.90;99146.63;105070;1272;74267;-24
2022/07/03 11:25:42;;;;;;;8.10;5.70;;;;;;;28.01;49.65;99147.27;105014;1271;62225;-24
2022/07/03 11:28:29;;;;;;;7.40;5.50;;;;;;;28.45;49.10;99148.98;104655;1272;61983;-24
2022/07/03 11:31:18;;;;;;;7.00;5.70;;;;;;;28.41;49.18;99150.37;104888;1271;76532;-24
2022/07/03 11:33:52;;;;;;;5.80;5.30;;;;;;;28.27;49.88;99149.52;104937;1272;76947;-24
2022/07/03 11:36:30;;;;;;;5.90;5.30;;;;;;;27.74;50.63;99144.44;104681;1272;75550;-24
2022/07/03 11:38:58;;;;;;;6.70;6.00;;;;;;;27.48;51.11;99144.41;104858;1270;61150;-24
2022/07/03 11:41:30;;;;;;;8.40;6.20;;;;;;;27.09;52.67;99147.70;104905;1271;62979;-24
2022/07/03 11:43:58;;;;;;;7.20;5.40;;;;;;;26.70;52.80;99148.69;104781;1272;76517;-24
2022/07/03 11:46:26;;;;;;;6.60;5.50;;;;;;;26.54;54.03;99150.84;105142;1272;77044;-25
2022/07/03 11:49:25;;;;;;;8.10;5.40;;;;;;;26.30;55.27;99151.26;104740;1271;74345;-24
2022/07/03 11:51:57;;;;;;;10.90;5.60;;;;;;;26.11;56.38;99151.61;104707;1274;61151;-25
2022/07/03 11:54:25;;;;;;;9.70;7.30;;;;;;;25.71;57.07;99148.75;104980;1271;62059;-24